Terminal Aerodrome Forecast
Issued by NWS

Home | Current Version | Previous Version | Text Only | Print | Product List | Glossary On
Versions: 1 2 3 4 5 6 7 8 9 10 11 12 13 14 15 16 17 18 19
998
FTUS41 KBGM 261125
TAFELM
TAF
KELM 261125Z 2612/2712 VRB03KT P6SM OVC009
     FM261400 VRB04KT 5SM BR OVC018
     FM261700 16010KT P6SM OVC012
     FM270900 18005KT 3SM -RA BR OVC008=

USA.gov is the U.S. government's official web portal to all federal, state and local government web resources and services.